Aviation Digital Data Service (ADDS)

Output produced by METARs form (0602 UTC 24 May 2017)
found at http://aviationweather.gov/adds/metars/
 
KBAF 240520Z 2406/2506 00000KT P6SM BKN200 OVC250 
     FM242300 11004KT P6SM SCT080